createdAt,value
2019-04-14T00:00:16.478Z,15.53
2019-04-14T00:02:55.466Z,14.57
2019-04-14T00:05:31.430Z,14.33
2019-04-14T00:08:02.685Z,15.40
2019-04-14T00:10:35.496Z,13.83
2019-04-14T00:13:08.976Z,14.27
2019-04-14T00:15:45.151Z,15.33
2019-04-14T00:18:16.447Z,17.97
2019-04-14T00:20:49.572Z,17.27
2019-04-14T00:23:22.256Z,16.93
2019-04-14T00:25:54.556Z,16.33
2019-04-14T00:28:27.715Z,14.30
2019-04-14T00:31:02.388Z,16.10
2019-04-14T00:33:35.114Z,17.00
2019-04-14T00:36:10.992Z,15.70
2019-04-14T00:38:46.012Z,15.77
2019-04-14T00:41:41.323Z,15.07
2019-04-14T00:44:14.551Z,15.90
2019-04-14T00:46:58.277Z,14.43
2019-04-14T00:49:31.171Z,12.83
2019-04-14T00:52:04.144Z,14.73
2019-04-14T00:54:39.210Z,14.40
2019-04-14T00:57:11.826Z,13.80
2019-04-14T00:59:44.106Z,14.73
2019-04-14T01:02:16.768Z,14.23
2019-04-14T01:04:51.229Z,14.77
2019-04-14T01:07:24.138Z,16.30
2019-04-14T01:09:57.526Z,15.27
2019-04-14T01:12:30.354Z,15.10
2019-04-14T01:15:05.001Z,14.47
2019-04-14T01:17:37.858Z,15.93
2019-04-14T01:20:10.736Z,14.87
2019-04-14T01:22:44.476Z,15.10
2019-04-14T01:25:17.332Z,15.63
2019-04-14T01:27:51.734Z,15.37
2019-04-14T01:30:24.188Z,15.90
2019-04-14T01:32:56.905Z,15.53
2019-04-14T01:35:29.599Z,16.97
2019-04-14T01:38:02.282Z,16.57
2019-04-14T01:40:35.938Z,14.67
2019-04-14T01:43:09.984Z,16.53
2019-04-14T01:45:43.123Z,15.20
2019-04-14T01:48:17.087Z,15.90
2019-04-14T01:50:51.676Z,15.17
2019-04-14T01:53:29.287Z,16.13
2019-04-14T01:56:16.506Z,16.17
2019-04-14T01:58:53.617Z,15.03
2019-04-14T02:01:30.577Z,15.17
2019-04-14T02:04:03.217Z,15.07
2019-04-14T02:06:35.833Z,15.77
2019-04-14T02:09:12.204Z,14.23
2019-04-14T02:11:44.888Z,14.53
2019-04-14T02:14:17.408Z,14.70
2019-04-14T02:16:55.242Z,14.17
2019-04-14T02:19:26.252Z,13.77
2019-04-14T02:21:58.831Z,14.00
2019-04-14T02:24:31.434Z,13.43
2019-04-14T02:27:03.681Z,12.50
2019-04-14T02:29:36.710Z,14.20
2019-04-14T02:32:47.178Z,13.27
2019-04-14T02:35:10.862Z,12.43
2019-04-14T02:37:45.504Z,12.30
2019-04-14T02:40:33.163Z,12.43
2019-04-14T02:42:54.236Z,12.33
2019-04-14T02:45:45.205Z,12.43
2019-04-14T02:53:15.657Z,12.53
2019-04-14T02:55:48.921Z,12.70
2019-04-14T03:01:02.839Z,12.07
2019-04-14T03:06:10.440Z,12.13
2019-04-14T03:11:26.963Z,10.83
2019-04-14T03:13:44.971Z,11.93
2019-04-14T03:16:23.540Z,12.33
2019-04-14T03:32:23.538Z,12.30
2019-04-14T03:34:52.078Z,12.33
2019-04-14T03:37:37.649Z,12.23
2019-04-14T03:42:31.328Z,11.57
2019-04-14T03:45:00.520Z,11.27
2019-04-14T03:50:09.710Z,12.97
2019-04-14T03:55:05.552Z,12.27
2019-04-14T03:57:27.031Z,11.97
2019-04-14T03:59:58.917Z,13.37
2019-04-14T04:02:31.599Z,13.03
2019-04-14T04:05:04.325Z,12.23
2019-04-14T04:07:37.047Z,11.90
2019-04-14T04:10:11.497Z,11.63
2019-04-14T04:12:44.463Z,12.40
2019-04-14T04:15:17.063Z,11.63
2019-04-14T04:17:51.672Z,13.20
2019-04-14T04:20:26.369Z,12.50
2019-04-14T04:23:07.388Z,12.10
2019-04-14T04:25:42.199Z,12.83
2019-04-14T04:28:14.515Z,11.80
2019-04-14T04:30:51.851Z,11.40
2019-04-14T04:33:42.338Z,12.60
2019-04-14T04:36:29.159Z,12.03
2019-04-14T04:39:03.942Z,12.30
2019-04-14T04:41:36.977Z,11.90
2019-04-14T04:44:09.655Z,11.00
2019-04-14T04:46:43.722Z,12.37
2019-04-14T04:49:21.753Z,11.43
2019-04-14T04:51:53.039Z,11.97
2019-04-14T04:54:27.830Z,11.90
2019-04-14T04:57:01.041Z,11.67
2019-04-14T04:59:34.360Z,11.10
2019-04-14T05:02:07.110Z,11.83
2019-04-14T05:04:39.786Z,12.30
2019-04-14T05:07:12.521Z,11.63
2019-04-14T05:09:46.935Z,11.63
2019-04-14T05:12:24.253Z,11.33
2019-04-14T05:15:00.986Z,11.50
2019-04-14T05:17:38.909Z,12.03
2019-04-14T05:20:12.045Z,11.70
2019-04-14T05:22:44.716Z,12.00
2019-04-14T05:25:17.405Z,11.67
2019-04-14T05:27:50.079Z,11.43
2019-04-14T05:30:22.767Z,10.60
2019-04-14T05:32:56.512Z,12.03
2019-04-14T05:35:29.448Z,11.93
2019-04-14T05:38:02.183Z,11.90
2019-04-14T05:40:34.492Z,12.63
2019-04-14T05:43:07.133Z,12.07
2019-04-14T05:45:39.852Z,12.70
2019-04-14T05:48:12.098Z,11.77
2019-04-14T05:50:44.802Z,11.47
2019-04-14T05:53:17.524Z,12.53
2019-04-14T05:55:50.422Z,12.97
2019-04-14T05:58:23.292Z,11.93
2019-04-14T06:00:55.926Z,12.13
2019-04-14T06:03:29.835Z,11.97
2019-04-14T06:06:03.612Z,12.60
2019-04-14T06:08:36.224Z,12.17
2019-04-14T06:11:08.906Z,12.63
2019-04-14T06:13:41.639Z,12.57
2019-04-14T06:16:14.358Z,13.17
2019-04-14T06:18:47.036Z,13.37
2019-04-14T06:21:19.721Z,12.07
2019-04-14T06:23:52.401Z,12.40
2019-04-14T06:26:24.970Z,12.50
2019-04-14T06:28:57.219Z,11.93
2019-04-14T06:31:47.544Z,12.73
2019-04-14T06:34:21.747Z,13.53
2019-04-14T06:36:59.036Z,16.83
2019-04-14T06:39:39.183Z,16.47
2019-04-14T06:42:11.492Z,14.50
2019-04-14T06:44:43.728Z,12.53
2019-04-14T06:47:16.411Z,13.73
2019-04-14T06:49:49.426Z,12.70
2019-04-14T06:52:22.489Z,13.57
2019-04-14T06:54:55.156Z,13.50
2019-04-14T06:57:27.836Z,12.80
2019-04-14T07:00:00.075Z,13.57
2019-04-14T07:02:32.791Z,12.43
2019-04-14T07:05:07.116Z,14.40
2019-04-14T07:07:39.422Z,13.77
2019-04-14T07:10:12.062Z,13.63
2019-04-14T07:12:44.366Z,12.53
2019-04-14T07:15:17.009Z,13.33
2019-04-14T07:17:49.680Z,15.50
2019-04-14T07:20:22.253Z,13.47
2019-04-14T07:22:54.936Z,12.90
2019-04-14T07:25:27.626Z,13.60
2019-04-14T07:28:00.142Z,12.97
2019-04-14T07:30:47.406Z,13.83
2019-04-14T07:33:31.648Z,12.30
2019-04-14T07:36:12.737Z,13.73
2019-04-14T07:38:46.856Z,13.97
2019-04-14T07:41:29.881Z,12.17
2019-04-14T07:44:04.073Z,14.10
2019-04-14T07:46:56.140Z,13.80
2019-04-14T07:49:42.418Z,13.70
2019-04-14T07:52:28.613Z,14.70
2019-04-14T07:55:00.985Z,14.33
2019-04-14T07:57:53.541Z,14.00
2019-04-14T08:00:31.644Z,13.93
2019-04-14T08:03:07.142Z,15.30
2019-04-14T08:05:41.405Z,15.93
2019-04-14T08:08:13.647Z,15.90
2019-04-14T08:10:46.357Z,13.93
2019-04-14T08:13:19.025Z,14.37
2019-04-14T08:15:51.565Z,15.40
2019-04-14T08:18:24.050Z,14.70
2019-04-14T08:20:56.765Z,15.57
2019-04-14T08:23:29.450Z,14.13
2019-04-14T08:26:02.127Z,14.93
2019-04-14T08:28:34.802Z,14.23
2019-04-14T08:31:07.534Z,14.97
2019-04-14T08:33:40.148Z,14.20
2019-04-14T08:36:13.858Z,14.67
2019-04-14T08:38:46.433Z,15.13
2019-04-14T08:41:19.119Z,14.70
2019-04-14T08:44:09.300Z,15.70
2019-04-14T08:46:42.259Z,14.27
2019-04-14T08:49:31.152Z,12.97
2019-04-14T08:52:11.512Z,13.53
2019-04-14T08:54:55.962Z,14.20
2019-04-14T08:57:45.234Z,13.70
2019-04-14T09:00:26.303Z,13.30
2019-04-14T09:03:03.335Z,12.73
2019-04-14T09:05:37.495Z,14.07
2019-04-14T09:08:17.973Z,13.60
2019-04-14T09:10:54.635Z,13.47
2019-04-14T09:13:26.940Z,12.20
2019-04-14T09:15:59.590Z,11.63
2019-04-14T09:18:32.371Z,10.10
2019-04-14T09:21:06.279Z,10.80
2019-04-14T09:23:39.056Z,10.47
2019-04-14T09:26:11.736Z,9.53
2019-04-14T09:28:44.419Z,10.70
2019-04-14T09:31:17.094Z,10.40
2019-04-14T09:33:49.774Z,9.00
2019-04-14T09:36:22.447Z,8.33
2019-04-14T09:38:56.925Z,8.60
2019-04-14T09:41:29.554Z,7.93
2019-04-14T09:44:02.225Z,8.90
2019-04-14T09:46:35.932Z,9.50
2019-04-14T09:49:08.617Z,9.00
2019-04-14T09:51:41.295Z,9.07
2019-04-14T09:54:14.073Z,8.63
2019-04-14T09:56:46.744Z,7.90
2019-04-14T09:59:19.059Z,8.00
2019-04-14T10:01:51.803Z,7.83
2019-04-14T10:04:24.487Z,8.77
2019-04-14T10:06:57.259Z,8.67
2019-04-14T10:09:30.256Z,8.70
2019-04-14T10:12:02.931Z,8.67
2019-04-14T10:14:35.601Z,8.30
2019-04-14T10:17:08.386Z,8.37
2019-04-14T10:19:41.071Z,8.23
2019-04-14T10:22:13.309Z,9.20
2019-04-14T10:24:45.925Z,8.73
2019-04-14T10:27:18.692Z,8.93
2019-04-14T10:29:51.377Z,9.30
2019-04-14T10:32:24.053Z,8.57
2019-04-14T10:34:57.917Z,14.57
2019-04-14T10:37:30.532Z,8.83
2019-04-14T10:40:05.962Z,10.70
2019-04-14T10:42:38.965Z,11.27
2019-04-14T10:45:11.781Z,9.37
2019-04-14T10:47:44.635Z,9.20
2019-04-14T10:50:29.989Z,8.37
2019-04-14T10:52:51.502Z,7.00
2019-04-14T10:55:24.199Z,6.17
2019-04-14T10:57:56.883Z,6.33
2019-04-14T11:00:29.529Z,6.20
2019-04-14T11:03:02.138Z,6.00
2019-04-14T11:05:53.454Z,6.53
2019-04-14T11:08:26.233Z,5.80
2019-04-14T11:10:59.214Z,5.60
2019-04-14T11:13:31.804Z,5.60
2019-04-14T11:16:04.486Z,5.23
2019-04-14T11:18:37.158Z,5.40
2019-04-14T11:21:09.837Z,5.60
2019-04-14T11:23:42.525Z,5.70
2019-04-14T11:26:14.828Z,6.03
2019-04-14T11:28:48.690Z,6.43
2019-04-14T11:31:25.683Z,7.37
2019-04-14T11:34:03.060Z,7.27
2019-04-14T11:36:40.254Z,6.10
2019-04-14T11:39:14.065Z,6.23
2019-04-14T11:41:46.888Z,6.60
2019-04-14T11:44:19.823Z,7.07
2019-04-14T11:46:52.164Z,6.67
2019-04-14T11:49:25.590Z,6.87
2019-04-14T11:51:58.478Z,6.83
2019-04-14T11:54:31.146Z,7.13
2019-04-14T11:57:03.841Z,6.27
2019-04-14T11:59:38.328Z,6.60
2019-04-14T12:02:21.425Z,6.80
2019-04-14T12:05:04.290Z,6.30
2019-04-14T12:07:40.978Z,6.87
2019-04-14T12:10:14.989Z,6.40
2019-04-14T12:12:47.761Z,6.97
2019-04-14T12:15:20.801Z,7.03
2019-04-14T12:17:53.525Z,7.47
2019-04-14T12:20:26.211Z,7.10
2019-04-14T12:22:58.748Z,6.60
2019-04-14T12:25:31.369Z,7.30
2019-04-14T12:28:04.764Z,6.30
2019-04-14T12:30:37.740Z,6.40
2019-04-14T12:33:10.732Z,5.90
2019-04-14T12:35:43.207Z,6.10
2019-04-14T12:38:15.887Z,6.23
2019-04-14T12:40:50.045Z,5.50
2019-04-14T12:43:30.970Z,6.00
2019-04-14T12:46:20.546Z,6.47
2019-04-14T12:49:09.720Z,6.00
2019-04-14T12:51:46.687Z,6.00
2019-04-14T12:54:21.021Z,6.43
2019-04-14T12:56:53.747Z,6.37
2019-04-14T12:59:29.327Z,6.60
2019-04-14T13:02:07.755Z,6.23
2019-04-14T13:04:40.524Z,5.70
2019-04-14T13:07:13.210Z,5.80
2019-04-14T13:09:47.016Z,5.93
2019-04-14T13:12:19.689Z,6.10
2019-04-14T13:14:52.377Z,6.17
2019-04-14T13:17:25.348Z,6.00
2019-04-14T13:19:57.898Z,6.00
2019-04-14T13:22:34.132Z,5.83
2019-04-14T13:25:07.084Z,6.13
2019-04-14T13:27:39.455Z,5.53
2019-04-14T13:30:14.249Z,5.50
2019-04-14T13:32:46.490Z,6.37
2019-04-14T13:35:18.929Z,6.03
2019-04-14T13:37:51.579Z,5.93
2019-04-14T13:40:23.874Z,5.97
2019-04-14T13:42:56.570Z,6.17
2019-04-14T13:45:29.308Z,5.70
2019-04-14T13:48:01.989Z,6.00
2019-04-14T13:50:34.686Z,6.73
2019-04-14T13:53:07.341Z,5.63
2019-04-14T13:55:40.026Z,6.10
2019-04-14T13:58:12.700Z,6.40
2019-04-14T14:00:45.387Z,6.40
2019-04-14T14:03:18.060Z,6.50
2019-04-14T14:05:51.357Z,6.43
2019-04-14T14:08:24.033Z,6.00
2019-04-14T14:10:58.342Z,6.30
2019-04-14T14:13:38.501Z,6.67
2019-04-14T14:16:12.822Z,6.27
2019-04-14T14:18:56.147Z,6.23
2019-04-14T14:21:31.381Z,5.77
2019-04-14T14:24:17.686Z,6.30
2019-04-14T14:26:51.551Z,5.80
2019-04-14T14:29:23.691Z,6.77
2019-04-14T14:31:57.671Z,5.90
2019-04-14T14:34:30.352Z,6.20
2019-04-14T14:37:03.022Z,5.83
2019-04-14T14:39:36.220Z,6.10
2019-04-14T14:42:08.897Z,6.00
2019-04-14T14:44:45.878Z,6.00
2019-04-14T14:47:20.101Z,6.00
2019-04-14T14:49:54.316Z,5.43
2019-04-14T14:52:27.309Z,5.77
2019-04-14T14:54:59.978Z,7.10
2019-04-14T14:57:32.277Z,5.40
2019-04-14T15:00:10.750Z,5.40
2019-04-14T15:02:43.431Z,5.50
2019-04-14T15:05:16.419Z,5.30
2019-04-14T15:07:49.100Z,5.53
2019-04-14T15:10:21.781Z,5.00
2019-04-14T15:12:54.467Z,5.80
2019-04-14T15:15:27.173Z,5.07
2019-04-14T15:17:59.916Z,5.13
2019-04-14T15:20:32.711Z,4.80
2019-04-14T15:23:05.989Z,5.23
2019-04-14T15:25:38.671Z,5.43
2019-04-14T15:28:11.359Z,5.43
2019-04-14T15:30:44.038Z,5.93
2019-04-14T15:33:16.712Z,6.30
2019-04-14T15:35:49.386Z,5.40
2019-04-14T15:38:21.973Z,5.13
2019-04-14T15:40:54.215Z,6.00
2019-04-14T15:43:26.508Z,5.80
2019-04-14T15:45:59.195Z,5.60
2019-04-14T15:48:31.909Z,5.03
2019-04-14T15:51:04.553Z,6.20
2019-04-14T15:53:38.411Z,5.30
2019-04-14T15:56:12.865Z,5.80
2019-04-14T15:58:50.168Z,5.37
2019-04-14T16:01:30.415Z,5.50
2019-04-14T16:04:04.648Z,6.23
2019-04-14T16:06:47.860Z,6.10
2019-04-14T16:09:24.703Z,6.57
2019-04-14T16:12:02.872Z,5.00
2019-04-14T16:14:37.580Z,5.40
2019-04-14T16:17:28.182Z,5.13
2019-04-14T16:20:11.496Z,4.27
2019-04-14T16:22:44.277Z,5.20
2019-04-14T16:25:16.580Z,5.53
2019-04-14T16:28:03.060Z,5.30
2019-04-14T16:30:40.133Z,5.33
2019-04-14T16:33:14.347Z,5.80
2019-04-14T16:35:48.559Z,5.63
2019-04-14T16:38:21.143Z,4.93
2019-04-14T16:40:54.329Z,4.70
2019-04-14T16:43:27.121Z,4.67
2019-04-14T16:45:59.801Z,4.60
2019-04-14T16:48:32.473Z,4.57
2019-04-14T16:51:06.173Z,4.60
2019-04-14T16:53:40.596Z,4.80
2019-04-14T16:56:14.913Z,4.80
2019-04-14T16:58:48.729Z,4.90
2019-04-14T17:01:28.721Z,5.00
2019-04-14T17:04:01.458Z,5.63
2019-04-14T17:06:34.128Z,4.70
2019-04-14T17:09:08.958Z,4.97
2019-04-14T17:11:43.185Z,5.23
2019-04-14T17:14:17.434Z,5.37
2019-04-14T17:16:57.501Z,4.97
2019-04-14T17:19:37.922Z,5.33
2019-04-14T17:22:15.299Z,4.90
2019-04-14T17:24:55.343Z,4.80
2019-04-14T17:27:29.212Z,5.70
2019-04-14T17:30:22.624Z,5.83
2019-04-14T17:33:04.100Z,5.10
2019-04-14T17:35:54.409Z,5.70
2019-04-14T17:38:29.204Z,6.20
2019-04-14T17:41:21.406Z,5.83
2019-04-14T17:44:06.933Z,8.17
2019-04-14T17:47:12.203Z,9.80
2019-04-14T17:49:53.251Z,11.50
2019-04-14T17:52:46.463Z,13.53
2019-04-14T17:55:34.020Z,13.57
2019-04-14T17:58:23.329Z,13.17
2019-04-14T18:01:12.120Z,12.97
2019-04-14T18:04:04.203Z,11.63
2019-04-14T18:06:58.415Z,10.93
2019-04-14T18:10:01.932Z,10.10
2019-04-14T18:12:49.847Z,10.07
2019-04-14T18:15:50.042Z,11.77
2019-04-14T18:18:46.411Z,9.90
2019-04-14T18:21:39.650Z,10.73
2019-04-14T18:24:41.232Z,9.40
2019-04-14T18:27:17.397Z,10.50
2019-04-14T18:30:07.712Z,10.77
2019-04-14T18:33:22.585Z,11.07
2019-04-14T18:36:19.551Z,10.00
2019-04-14T18:39:02.573Z,9.73
2019-04-14T18:41:58.386Z,10.50
2019-04-14T18:44:49.551Z,12.70
2019-04-14T18:47:32.984Z,12.53
2019-04-14T18:50:19.962Z,12.67
2019-04-14T18:53:07.909Z,12.97
2019-04-14T18:55:53.540Z,11.90
2019-04-14T18:58:52.636Z,13.97
2019-04-14T19:01:36.691Z,12.87
2019-04-14T19:04:15.775Z,11.60
2019-04-14T19:06:57.764Z,8.17
2019-04-14T19:09:37.506Z,8.73
2019-04-14T19:12:25.835Z,9.30
2019-04-14T19:15:17.708Z,10.37
2019-04-14T19:18:05.827Z,10.23
2019-04-14T19:20:47.251Z,9.83
2019-04-14T19:23:32.907Z,12.60
2019-04-14T19:26:16.303Z,12.87
2019-04-14T19:28:57.031Z,13.33
2019-04-14T19:31:43.913Z,12.30
2019-04-14T19:34:19.658Z,11.83
2019-04-14T19:36:59.878Z,10.03
2019-04-14T19:39:32.502Z,9.93
2019-04-14T19:42:05.165Z,9.80
2019-04-14T19:44:37.830Z,8.47
2019-04-14T19:47:11.248Z,7.73
2019-04-14T19:49:44.533Z,7.70
2019-04-14T19:52:20.552Z,8.70
2019-04-14T19:54:53.008Z,7.33
2019-04-14T19:57:25.668Z,7.37
2019-04-14T19:59:58.229Z,6.90
2019-04-14T20:02:30.957Z,6.27
2019-04-14T20:05:03.236Z,7.70
2019-04-14T20:07:35.757Z,7.07
2019-04-14T20:10:09.966Z,6.83
2019-04-14T20:12:42.646Z,6.20
2019-04-14T20:15:16.965Z,6.83
2019-04-14T20:17:53.953Z,7.23
2019-04-14T20:20:28.259Z,6.90
2019-04-14T20:23:10.325Z,6.97
2019-04-14T20:25:47.450Z,7.33
2019-04-14T20:28:21.710Z,7.60
2019-04-14T20:30:55.512Z,8.80
2019-04-14T20:33:27.823Z,7.37
2019-04-14T20:36:00.412Z,7.77
2019-04-14T20:38:33.088Z,7.50
2019-04-14T20:41:05.778Z,7.43
2019-04-14T20:43:38.451Z,7.87
2019-04-14T20:46:10.678Z,7.60
2019-04-14T20:48:43.402Z,7.93
2019-04-14T20:51:16.893Z,8.43
2019-04-14T20:53:50.288Z,7.40
2019-04-14T20:56:22.968Z,8.27
2019-04-14T20:58:55.270Z,8.80
2019-04-14T21:01:29.517Z,8.03
2019-04-14T21:04:09.487Z,8.27
2019-04-14T21:06:43.724Z,8.20
2019-04-14T21:09:20.572Z,8.10
2019-04-14T21:12:13.042Z,8.47
2019-04-14T21:14:46.909Z,9.07
2019-04-14T21:17:38.982Z,8.67
2019-04-14T21:20:13.246Z,9.20
2019-04-14T21:23:03.282Z,7.90
2019-04-14T21:25:44.575Z,8.60
2019-04-14T21:28:25.954Z,8.27
2019-04-14T21:31:03.140Z,8.40
2019-04-14T21:33:47.383Z,8.77
2019-04-14T21:36:36.648Z,8.63
2019-04-14T21:39:11.791Z,8.67
2019-04-14T21:41:46.521Z,9.30
2019-04-14T21:44:18.659Z,8.77
2019-04-14T21:46:51.358Z,8.47
2019-04-14T21:49:24.048Z,8.83
2019-04-14T21:51:59.032Z,8.63
2019-04-14T21:54:31.658Z,8.43
2019-04-14T21:57:13.247Z,9.50
2019-04-14T21:59:48.692Z,9.00
2019-04-14T22:02:40.001Z,9.10
2019-04-14T22:05:23.456Z,8.40
2019-04-14T22:07:55.820Z,8.90
2019-04-14T22:10:32.793Z,8.90
2019-04-14T22:13:05.467Z,9.27
2019-04-14T22:15:38.799Z,8.60
2019-04-14T22:18:11.040Z,8.90
2019-04-14T22:20:43.697Z,8.57
2019-04-14T22:23:16.389Z,7.90
2019-04-14T22:25:48.825Z,8.80
2019-04-14T22:28:21.541Z,8.30
2019-04-14T22:30:54.115Z,9.37
2019-04-14T22:33:26.878Z,8.27
2019-04-14T22:35:59.476Z,7.63
2019-04-14T22:38:32.005Z,8.70
2019-04-14T22:41:05.942Z,8.27
2019-04-14T22:43:38.761Z,8.30
2019-04-14T22:46:11.419Z,8.53
2019-04-14T22:48:44.097Z,8.07
2019-04-14T22:51:16.777Z,7.87
2019-04-14T22:53:49.348Z,8.20
2019-04-14T22:56:21.574Z,7.83
2019-04-14T22:58:54.313Z,9.07
2019-04-14T23:01:28.521Z,8.97
2019-04-14T23:04:11.674Z,8.50
2019-04-14T23:07:02.545Z,8.33
2019-04-14T23:09:35.207Z,7.53
2019-04-14T23:12:10.650Z,8.63
2019-04-14T23:14:42.643Z,8.97
2019-04-14T23:17:16.827Z,8.10
2019-04-14T23:19:56.783Z,7.73
2019-04-14T23:22:30.997Z,8.10
2019-04-14T23:25:03.674Z,8.20
2019-04-14T23:27:36.362Z,8.60
2019-04-14T23:30:09.755Z,8.40
2019-04-14T23:32:42.326Z,6.83
2019-04-14T23:35:15.007Z,8.70
2019-04-14T23:37:47.788Z,8.57
2019-04-14T23:40:20.570Z,7.57
2019-04-14T23:42:53.245Z,7.47
2019-04-14T23:45:26.434Z,8.37
2019-04-14T23:47:58.890Z,8.30
2019-04-14T23:50:31.088Z,8.23
2019-04-14T23:53:04.015Z,7.70
2019-04-14T23:55:36.839Z,9.03
2019-04-14T23:58:09.316Z,7.20
